METAR Data
IDs: Format: Raw Decoded Include TAF

Data at: 1927 UTC 31 Jan 2023

METAR for:LFQQ (Lille/Lesquin Arpt, HD, FR)
Text:LFQQ 311900Z AUTO 24007KT 9999 FEW035 SCT047 OVC054 08/07 Q1024 NOSIG
Temperature: 8.0°C ( 46°F)
Dewpoint: 7.0°C ( 45°F) [RH = 93%]
Pressure (altimeter):30.24 inches Hg (1024.0 mb)
Winds:from the WSW (240 degrees) at 8 MPH (7 knots; 3.6 m/s)
Visibility:6 or more sm (10+ km)
Ceiling:5400 feet AGL
Clouds: few clouds at 3500 feet AGL, scattered clouds at 4700 feet AGL, overcast cloud deck at 5400 feet AGL

TAF for:LFQQ (Lille/Lesquin Arpt, HD, FR) issued at 1700 UTC 31 Jan 2023
Text:TAF LFQQ 311700Z 3118/0124 25010KT 9999 SCT040
Forecast period:1800 UTC 31 January 2023 to 0000 UTC 02 February 2023
Forecast type:FROM: standard forecast or significant change
Winds:from the WSW (250 degrees) at 12 MPH (10 knots; 5.1 m/s)
Visibility:6 or more sm (10+ km)
Ceiling:at least 12,000 feet AGL
Clouds: scattered clouds at 4000 feet AGL